sensor_id;sensor_type;location;lat;lon;timestamp;P1;durP1;ratioP1;P2;durP2;ratioP2
32108;SDS011;18624;50.042;8.436;2022-10-18T00:00:46;8.27;;;5.38;;
32108;SDS011;18624;50.042;8.436;2022-10-18T00:03:13;5.63;;;5.13;;
32108;SDS011;18624;50.042;8.436;2022-10-18T00:05:39;6.88;;;4.78;;
32108;SDS011;18624;50.042;8.436;2022-10-18T00:08:05;9.45;;;4.88;;
32108;SDS011;18624;50.042;8.436;2022-10-18T00:10:32;7.50;;;5.90;;
32108;SDS011;18624;50.042;8.436;2022-10-18T00:12:58;8.15;;;5.80;;
32108;SDS011;18624;50.042;8.436;2022-10-18T00:15:24;7.22;;;5.53;;
32108;SDS011;18624;50.042;8.436;2022-10-18T00:17:52;6.45;;;5.78;;
32108;SDS011;18624;50.042;8.436;2022-10-18T00:20:18;4.90;;;4.03;;
32108;SDS011;18624;50.042;8.436;2022-10-18T00:22:44;6.28;;;4.85;;
32108;SDS011;18624;50.042;8.436;2022-10-18T00:25:11;8.88;;;5.15;;
32108;SDS011;18624;50.042;8.436;2022-10-18T00:27:38;7.50;;;6.13;;
32108;SDS011;18624;50.042;8.436;2022-10-18T00:30:04;5.93;;;4.85;;
32108;SDS011;18624;50.042;8.436;2022-10-18T00:32:38;6.18;;;5.50;;
32108;SDS011;18624;50.042;8.436;2022-10-18T00:35:06;6.90;;;6.28;;
32108;SDS011;18624;50.042;8.436;2022-10-18T00:37:33;5.40;;;4.75;;
32108;SDS011;18624;50.042;8.436;2022-10-18T00:40:00;6.43;;;5.43;;
32108;SDS011;18624;50.042;8.436;2022-10-18T00:42:29;7.72;;;5.82;;
32108;SDS011;18624;50.042;8.436;2022-10-18T00:45:06;7.55;;;5.70;;
32108;SDS011;18624;50.042;8.436;2022-10-18T00:47:40;5.72;;;5.18;;
32108;SDS011;18624;50.042;8.436;2022-10-18T00:50:10;8.85;;;5.82;;
32108;SDS011;18624;50.042;8.436;2022-10-18T00:52:38;9.93;;;5.40;;
32108;SDS011;18624;50.042;8.436;2022-10-18T00:55:08;5.47;;;5.00;;
32108;SDS011;18624;50.042;8.436;2022-10-18T00:57:35;7.47;;;5.47;;
32108;SDS011;18624;50.042;8.436;2022-10-18T01:00:03;10.05;;;5.97;;
32108;SDS011;18624;50.042;8.436;2022-10-18T01:02:35;5.68;;;4.75;;
32108;SDS011;18624;50.042;8.436;2022-10-18T01:05:03;5.63;;;4.75;;
32108;SDS011;18624;50.042;8.436;2022-10-18T01:07:37;5.47;;;4.97;;
32108;SDS011;18624;50.042;8.436;2022-10-18T01:10:33;6.03;;;5.43;;
32108;SDS011;18624;50.042;8.436;2022-10-18T01:13:23;6.47;;;5.80;;
32108;SDS011;18624;50.042;8.436;2022-10-18T01:16:16;6.70;;;5.68;;
32108;SDS011;18624;50.042;8.436;2022-10-18T01:21:31;6.60;;;5.75;;
32108;SDS011;18624;50.042;8.436;2022-10-18T01:26:56;6.30;;;5.43;;
32108;SDS011;18624;50.042;8.436;2022-10-18T01:32:59;6.15;;;5.63;;
32108;SDS011;18624;50.042;8.436;2022-10-18T01:35:31;8.73;;;6.82;;
32108;SDS011;18624;50.042;8.436;2022-10-18T01:38:03;6.80;;;6.05;;
32108;SDS011;18624;50.042;8.436;2022-10-18T01:40:34;7.43;;;6.72;;
32108;SDS011;18624;50.042;8.436;2022-10-18T01:43:02;6.10;;;5.60;;
32108;SDS011;18624;50.042;8.436;2022-10-18T01:45:29;13.00;;;7.40;;
32108;SDS011;18624;50.042;8.436;2022-10-18T01:47:57;8.13;;;7.28;;
32108;SDS011;18624;50.042;8.436;2022-10-18T01:50:31;6.38;;;5.78;;
32108;SDS011;18624;50.042;8.436;2022-10-18T01:52:59;8.30;;;7.35;;
32108;SDS011;18624;50.042;8.436;2022-10-18T01:55:28;7.43;;;5.88;;
32108;SDS011;18624;50.042;8.436;2022-10-18T01:58:12;8.45;;;6.38;;
32108;SDS011;18624;50.042;8.436;2022-10-18T02:00:53;8.23;;;6.70;;
32108;SDS011;18624;50.042;8.436;2022-10-18T02:03:29;7.80;;;6.63;;
32108;SDS011;18624;50.042;8.436;2022-10-18T02:08:35;12.18;;;8.95;;
32108;SDS011;18624;50.042;8.436;2022-10-18T02:11:08;11.65;;;9.15;;
32108;SDS011;18624;50.042;8.436;2022-10-18T02:13:39;11.70;;;10.48;;
32108;SDS011;18624;50.042;8.436;2022-10-18T02:16:09;12.75;;;10.40;;
32108;SDS011;18624;50.042;8.436;2022-10-18T02:18:40;11.88;;;10.48;;
32108;SDS011;18624;50.042;8.436;2022-10-18T02:21:12;12.95;;;10.75;;
32108;SDS011;18624;50.042;8.436;2022-10-18T02:23:44;10.88;;;9.77;;
32108;SDS011;18624;50.042;8.436;2022-10-18T02:26:12;10.25;;;9.25;;
32108;SDS011;18624;50.042;8.436;2022-10-18T02:28:42;11.23;;;9.23;;
32108;SDS011;18624;50.042;8.436;2022-10-18T02:31:11;11.10;;;9.02;;
32108;SDS011;18624;50.042;8.436;2022-10-18T02:34:17;9.70;;;8.73;;
32108;SDS011;18624;50.042;8.436;2022-10-18T02:36:47;11.38;;;8.77;;
32108;SDS011;18624;50.042;8.436;2022-10-18T02:39:19;9.20;;;8.38;;
32108;SDS011;18624;50.042;8.436;2022-10-18T02:41:52;9.50;;;8.57;;
32108;SDS011;18624;50.042;8.436;2022-10-18T02:44:20;11.05;;;8.32;;
32108;SDS011;18624;50.042;8.436;2022-10-18T02:46:49;11.05;;;8.38;;
32108;SDS011;18624;50.042;8.436;2022-10-18T02:49:18;8.77;;;7.90;;
32108;SDS011;18624;50.042;8.436;2022-10-18T02:51:44;9.13;;;7.75;;
32108;SDS011;18624;50.042;8.436;2022-10-18T02:54:14;8.90;;;8.00;;
32108;SDS011;18624;50.042;8.436;2022-10-18T02:56:43;8.10;;;7.30;;
32108;SDS011;18624;50.042;8.436;2022-10-18T02:59:10;8.20;;;7.50;;
32108;SDS011;18624;50.042;8.436;2022-10-18T05:07:44;4.25;;;3.83;;
32108;SDS011;18624;50.042;8.436;2022-10-18T05:10:10;4.47;;;3.95;;
32108;SDS011;18624;50.042;8.436;2022-10-18T05:12:36;5.15;;;3.85;;
32108;SDS011;18624;50.042;8.436;2022-10-18T05:15:03;4.85;;;4.40;;
32108;SDS011;18624;50.042;8.436;2022-10-18T05:17:30;4.15;;;3.70;;
32108;SDS011;18624;50.042;8.436;2022-10-18T05:19:57;3.95;;;3.63;;
32108;SDS011;18624;50.042;8.436;2022-10-18T05:22:23;5.03;;;3.75;;
32108;SDS011;18624;50.042;8.436;2022-10-18T05:24:49;4.97;;;3.42;;
32108;SDS011;18624;50.042;8.436;2022-10-18T05:27:16;4.18;;;2.95;;
32108;SDS011;18624;50.042;8.436;2022-10-18T05:29:42;5.38;;;4.47;;
32108;SDS011;18624;50.042;8.436;2022-10-18T05:32:08;5.65;;;3.95;;
32108;SDS011;18624;50.042;8.436;2022-10-18T05:34:35;4.72;;;3.72;;
32108;SDS011;18624;50.042;8.436;2022-10-18T05:37:01;4.82;;;4.03;;
32108;SDS011;18624;50.042;8.436;2022-10-18T05:39:27;4.22;;;3.47;;
32108;SDS011;18624;50.042;8.436;2022-10-18T05:41:54;3.58;;;3.25;;
32108;SDS011;18624;50.042;8.436;2022-10-18T05:44:20;3.67;;;3.38;;
32108;SDS011;18624;50.042;8.436;2022-10-18T05:46:47;5.20;;;3.38;;
32108;SDS011;18624;50.042;8.436;2022-10-18T05:49:13;3.63;;;3.30;;
32108;SDS011;18624;50.042;8.436;2022-10-18T05:51:40;3.45;;;3.15;;
32108;SDS011;18624;50.042;8.436;2022-10-18T05:54:06;7.05;;;4.35;;
32108;SDS011;18624;50.042;8.436;2022-10-18T05:56:33;4.53;;;3.53;;
32108;SDS011;18624;50.042;8.436;2022-10-18T05:58:59;8.07;;;4.65;;
32108;SDS011;18624;50.042;8.436;2022-10-18T06:01:26;3.83;;;3.35;;
32108;SDS011;18624;50.042;8.436;2022-10-18T06:03:52;6.15;;;4.00;;
32108;SDS011;18624;50.042;8.436;2022-10-18T06:06:18;5.18;;;3.25;;
32108;SDS011;18624;50.042;8.436;2022-10-18T06:08:47;4.80;;;4.25;;
32108;SDS011;18624;50.042;8.436;2022-10-18T06:11:15;4.55;;;2.83;;
32108;SDS011;18624;50.042;8.436;2022-10-18T06:13:44;7.00;;;4.15;;
32108;SDS011;18624;50.042;8.436;2022-10-18T06:16:12;4.43;;;3.97;;
32108;SDS011;18624;50.042;8.436;2022-10-18T06:18:40;6.05;;;4.88;;
32108;SDS011;18624;50.042;8.436;2022-10-18T06:21:06;4.00;;;3.58;;
32108;SDS011;18624;50.042;8.436;2022-10-18T06:23:33;4.10;;;3.20;;
32108;SDS011;18624;50.042;8.436;2022-10-18T06:26:01;4.20;;;3.45;;
32108;SDS011;18624;50.042;8.436;2022-10-18T06:28:32;3.78;;;3.10;;
32108;SDS011;18624;50.042;8.436;2022-10-18T06:31:00;4.65;;;3.50;;
32108;SDS011;18624;50.042;8.436;2022-10-18T06:33:29;5.22;;;4.20;;
32108;SDS011;18624;50.042;8.436;2022-10-18T06:36:00;6.10;;;4.05;;
32108;SDS011;18624;50.042;8.436;2022-10-18T06:38:31;3.97;;;3.58;;
32108;SDS011;18624;50.042;8.436;2022-10-18T06:40:58;4.32;;;3.78;;
32108;SDS011;18624;50.042;8.436;2022-10-18T06:43:25;4.03;;;3.65;;
32108;SDS011;18624;50.042;8.436;2022-10-18T06:45:52;6.45;;;3.85;;
32108;SDS011;18624;50.042;8.436;2022-10-18T06:48:19;5.38;;;3.63;;
32108;SDS011;18624;50.042;8.436;2022-10-18T06:50:50;4.60;;;4.03;;
32108;SDS011;18624;50.042;8.436;2022-10-18T06:53:17;3.28;;;2.90;;
32108;SDS011;18624;50.042;8.436;2022-10-18T06:55:43;4.38;;;3.33;;
32108;SDS011;18624;50.042;8.436;2022-10-18T06:58:11;4.20;;;3.63;;
32108;SDS011;18624;50.042;8.436;2022-10-18T07:00:38;4.80;;;3.40;;
32108;SDS011;18624;50.042;8.436;2022-10-18T07:03:04;6.55;;;4.45;;
32108;SDS011;18624;50.042;8.436;2022-10-18T07:05:31;3.63;;;3.30;;
32108;SDS011;18624;50.042;8.436;2022-10-18T07:07:58;4.90;;;3.40;;
32108;SDS011;18624;50.042;8.436;2022-10-18T07:10:25;4.55;;;3.40;;
32108;SDS011;18624;50.042;8.436;2022-10-18T07:12:51;4.30;;;3.90;;
32108;SDS011;18624;50.042;8.436;2022-10-18T07:15:33;4.63;;;3.38;;
32108;SDS011;18624;50.042;8.436;2022-10-18T07:18:03;4.60;;;3.33;;
32108;SDS011;18624;50.042;8.436;2022-10-18T07:20:29;3.92;;;3.53;;
32108;SDS011;18624;50.042;8.436;2022-10-18T07:22:56;3.92;;;3.58;;
32108;SDS011;18624;50.042;8.436;2022-10-18T07:25:22;6.30;;;3.50;;
32108;SDS011;18624;50.042;8.436;2022-10-18T07:27:53;5.05;;;4.45;;
32108;SDS011;18624;50.042;8.436;2022-10-18T07:30:19;6.88;;;5.00;;
32108;SDS011;18624;50.042;8.436;2022-10-18T07:32:46;5.45;;;4.85;;
32108;SDS011;18624;50.042;8.436;2022-10-18T07:35:12;4.72;;;4.28;;
32108;SDS011;18624;50.042;8.436;2022-10-18T07:37:39;4.13;;;3.55;;
32108;SDS011;18624;50.042;8.436;2022-10-18T07:40:05;6.78;;;4.88;;
32108;SDS011;18624;50.042;8.436;2022-10-18T07:42:33;5.05;;;4.65;;
32108;SDS011;18624;50.042;8.436;2022-10-18T07:45:00;4.20;;;3.42;;
32108;SDS011;18624;50.042;8.436;2022-10-18T07:47:27;4.03;;;3.38;;
32108;SDS011;18624;50.042;8.436;2022-10-18T07:49:57;3.75;;;2.85;;
32108;SDS011;18624;50.042;8.436;2022-10-18T07:52:24;3.35;;;2.90;;
32108;SDS011;18624;50.042;8.436;2022-10-18T07:54:50;4.15;;;2.78;;
32108;SDS011;18624;50.042;8.436;2022-10-18T07:57:16;4.10;;;3.15;;
32108;SDS011;18624;50.042;8.436;2022-10-18T07:59:43;3.30;;;3.00;;
32108;SDS011;18624;50.042;8.436;2022-10-18T08:02:11;3.20;;;2.90;;
32108;SDS011;18624;50.042;8.436;2022-10-18T08:04:37;3.80;;;3.08;;
32108;SDS011;18624;50.042;8.436;2022-10-18T08:07:04;3.17;;;2.88;;
32108;SDS011;18624;50.042;8.436;2022-10-18T08:09:31;3.63;;;3.10;;
32108;SDS011;18624;50.042;8.436;2022-10-18T08:11:57;3.80;;;3.50;;
32108;SDS011;18624;50.042;8.436;2022-10-18T08:14:24;3.53;;;2.95;;
32108;SDS011;18624;50.042;8.436;2022-10-18T08:16:51;3.78;;;3.05;;
32108;SDS011;18624;50.042;8.436;2022-10-18T08:19:17;3.47;;;3.13;;
32108;SDS011;18624;50.042;8.436;2022-10-18T08:21:43;3.20;;;2.90;;
32108;SDS011;18624;50.042;8.436;2022-10-18T08:24:10;3.85;;;2.30;;
32108;SDS011;18624;50.042;8.436;2022-10-18T08:26:36;3.33;;;3.03;;
32108;SDS011;18624;50.042;8.436;2022-10-18T08:29:02;3.85;;;3.10;;
32108;SDS011;18624;50.042;8.436;2022-10-18T08:31:48;3.95;;;3.10;;
32108;SDS011;18624;50.042;8.436;2022-10-18T08:34:15;3.53;;;2.72;;
32108;SDS011;18624;50.042;8.436;2022-10-18T08:36:49;2.60;;;2.40;;
32108;SDS011;18624;50.042;8.436;2022-10-18T08:39:16;4.03;;;2.95;;
32108;SDS011;18624;50.042;8.436;2022-10-18T08:44:30;5.47;;;4.07;;
32108;SDS011;18624;50.042;8.436;2022-10-18T08:47:05;3.58;;;3.25;;
32108;SDS011;18624;50.042;8.436;2022-10-18T08:49:56;4.57;;;3.50;;
32108;SDS011;18624;50.042;8.436;2022-10-18T08:52:47;4.25;;;3.85;;
32108;SDS011;18624;50.042;8.436;2022-10-18T09:00:43;4.50;;;4.10;;
32108;SDS011;18624;50.042;8.436;2022-10-18T09:06:30;5.30;;;3.90;;
32108;SDS011;18624;50.042;8.436;2022-10-18T09:09:22;3.80;;;3.40;;
32108;SDS011;18624;50.042;8.436;2022-10-18T09:17:39;5.40;;;4.95;;
32108;SDS011;18624;50.042;8.436;2022-10-18T09:20:20;5.55;;;4.85;;
32108;SDS011;18624;50.042;8.436;2022-10-18T09:22:52;4.75;;;4.35;;
32108;SDS011;18624;50.042;8.436;2022-10-18T09:27:56;4.03;;;3.22;;
32108;SDS011;18624;50.042;8.436;2022-10-18T09:30:45;4.93;;;3.80;;
32108;SDS011;18624;50.042;8.436;2022-10-18T09:36:04;5.38;;;2.83;;
32108;SDS011;18624;50.042;8.436;2022-10-18T09:38:41;3.30;;;2.40;;
32108;SDS011;18624;50.042;8.436;2022-10-18T09:41:18;2.78;;;2.33;;
32108;SDS011;18624;50.042;8.436;2022-10-18T09:43:53;2.60;;;2.40;;
32108;SDS011;18624;50.042;8.436;2022-10-18T09:46:30;2.50;;;2.30;;
32108;SDS011;18624;50.042;8.436;2022-10-18T09:51:48;4.70;;;3.60;;
32108;SDS011;18624;50.042;8.436;2022-10-18T09:57:01;5.15;;;4.65;;
32108;SDS011;18624;50.042;8.436;2022-10-18T09:59:41;5.07;;;4.60;;
32108;SDS011;18624;50.042;8.436;2022-10-18T10:02:14;6.07;;;3.80;;
32108;SDS011;18624;50.042;8.436;2022-10-18T10:04:43;3.30;;;3.00;;
32108;SDS011;18624;50.042;8.436;2022-10-18T10:07:15;2.70;;;2.50;;
32108;SDS011;18624;50.042;8.436;2022-10-18T10:12:47;2.90;;;2.53;;
32108;SDS011;18624;50.042;8.436;2022-10-18T10:15:19;3.35;;;2.50;;
32108;SDS011;18624;50.042;8.436;2022-10-18T10:18:03;3.07;;;2.77;;
32108;SDS011;18624;50.042;8.436;2022-10-18T10:20:36;3.58;;;2.83;;
32108;SDS011;18624;50.042;8.436;2022-10-18T10:23:17;2.92;;;2.72;;
32108;SDS011;18624;50.042;8.436;2022-10-18T10:25:50;5.38;;;3.40;;
32108;SDS011;18624;50.042;8.436;2022-10-18T10:28:27;4.85;;;4.15;;
32108;SDS011;18624;50.042;8.436;2022-10-18T10:33:44;3.40;;;2.33;;
32108;SDS011;18624;50.042;8.436;2022-10-18T10:36:16;4.53;;;2.78;;
32108;SDS011;18624;50.042;8.436;2022-10-18T10:38:43;3.25;;;2.53;;
32108;SDS011;18624;50.042;8.436;2022-10-18T10:41:17;2.17;;;1.77;;
32108;SDS011;18624;50.042;8.436;2022-10-18T10:43:47;1.63;;;1.52;;
32108;SDS011;18624;50.042;8.436;2022-10-18T10:46:15;2.35;;;1.23;;
32108;SDS011;18624;50.042;8.436;2022-10-18T10:48:45;1.10;;;1.05;;
32108;SDS011;18624;50.042;8.436;2022-10-18T10:51:43;2.00;;;1.50;;
32108;SDS011;18624;50.042;8.436;2022-10-18T10:54:23;1.85;;;1.52;;
32108;SDS011;18624;50.042;8.436;2022-10-18T10:56:53;1.90;;;1.70;;
32108;SDS011;18624;50.042;8.436;2022-10-18T10:59:23;1.90;;;1.50;;
32108;SDS011;18624;50.042;8.436;2022-10-18T11:02:10;3.25;;;1.73;;
32108;SDS011;18624;50.042;8.436;2022-10-18T11:04:41;2.88;;;2.17;;
32108;SDS011;18624;50.042;8.436;2022-10-18T11:12:31;2.40;;;1.70;;
32108;SDS011;18624;50.042;8.436;2022-10-18T11:15:03;2.40;;;1.55;;
32108;SDS011;18624;50.042;8.436;2022-10-18T11:17:38;1.48;;;1.38;;
32108;SDS011;18624;50.042;8.436;2022-10-18T11:25:43;2.00;;;1.90;;
32108;SDS011;18624;50.042;8.436;2022-10-18T11:31:01;1.60;;;1.50;;
32108;SDS011;18624;50.042;8.436;2022-10-18T11:36:49;2.00;;;1.80;;
32108;SDS011;18624;50.042;8.436;2022-10-18T11:54:32;1.80;;;1.70;;
32108;SDS011;18624;50.042;8.436;2022-10-18T12:00:08;2.30;;;1.90;;
32108;SDS011;18624;50.042;8.436;2022-10-18T12:02:47;2.72;;;2.50;;
32108;SDS011;18624;50.042;8.436;2022-10-18T12:05:34;2.60;;;1.88;;
32108;SDS011;18624;50.042;8.436;2022-10-18T12:08:17;2.47;;;2.28;;
32108;SDS011;18624;50.042;8.436;2022-10-18T12:10:52;1.85;;;1.65;;
32108;SDS011;18624;50.042;8.436;2022-10-18T12:13:32;2.47;;;1.60;;
32108;SDS011;18624;50.042;8.436;2022-10-18T12:16:04;3.20;;;2.22;;
32108;SDS011;18624;50.042;8.436;2022-10-18T12:18:32;3.17;;;1.90;;
32108;SDS011;18624;50.042;8.436;2022-10-18T12:21:04;3.47;;;2.67;;
32108;SDS011;18624;50.042;8.436;2022-10-18T12:23:36;2.10;;;1.90;;
32108;SDS011;18624;50.042;8.436;2022-10-18T12:26:10;2.58;;;1.50;;
32108;SDS011;18624;50.042;8.436;2022-10-18T12:28:40;2.50;;;2.30;;
32108;SDS011;18624;50.042;8.436;2022-10-18T12:31:17;2.08;;;1.50;;
32108;SDS011;18624;50.042;8.436;2022-10-18T12:33:54;1.50;;;1.40;;
32108;SDS011;18624;50.042;8.436;2022-10-18T12:36:27;5.25;;;2.22;;
32108;SDS011;18624;50.042;8.436;2022-10-18T12:39:11;3.53;;;1.60;;
32108;SDS011;18624;50.042;8.436;2022-10-18T12:42:22;3.80;;;1.95;;
32108;SDS011;18624;50.042;8.436;2022-10-18T12:47:45;3.33;;;1.48;;
32108;SDS011;18624;50.042;8.436;2022-10-18T12:50:24;2.92;;;2.00;;
32108;SDS011;18624;50.042;8.436;2022-10-18T12:55:35;1.20;;;1.10;;
32108;SDS011;18624;50.042;8.436;2022-10-18T12:58:09;1.52;;;1.42;;
32108;SDS011;18624;50.042;8.436;2022-10-18T13:18:54;2.58;;;2.33;;
32108;SDS011;18624;50.042;8.436;2022-10-18T13:21:28;2.60;;;2.40;;
32108;SDS011;18624;50.042;8.436;2022-10-18T13:24:16;2.30;;;2.10;;
32108;SDS011;18624;50.042;8.436;2022-10-18T13:27:01;1.70;;;1.60;;
32108;SDS011;18624;50.042;8.436;2022-10-18T13:38:33;2.38;;;1.98;;
32108;SDS011;18624;50.042;8.436;2022-10-18T13:41:10;1.55;;;1.38;;
32108;SDS011;18624;50.042;8.436;2022-10-18T13:52:25;1.30;;;1.05;;
32108;SDS011;18624;50.042;8.436;2022-10-18T13:58:20;2.20;;;1.95;;
32108;SDS011;18624;50.042;8.436;2022-10-18T14:03:34;2.60;;;1.77;;
32108;SDS011;18624;50.042;8.436;2022-10-18T14:06:24;1.30;;;1.20;;
32108;SDS011;18624;50.042;8.436;2022-10-18T14:18:01;1.38;;;1.27;;
32108;SDS011;18624;50.042;8.436;2022-10-18T14:20:36;1.42;;;1.27;;
32108;SDS011;18624;50.042;8.436;2022-10-18T14:23:26;1.10;;;1.00;;
32108;SDS011;18624;50.042;8.436;2022-10-18T14:28:42;1.77;;;1.67;;
32108;SDS011;18624;50.042;8.436;2022-10-18T14:33:53;1.58;;;1.48;;
32108;SDS011;18624;50.042;8.436;2022-10-18T14:36:24;1.30;;;1.20;;
32108;SDS011;18624;50.042;8.436;2022-10-18T14:39:01;2.25;;;2.05;;
32108;SDS011;18624;50.042;8.436;2022-10-18T14:41:36;1.63;;;1.30;;
32108;SDS011;18624;50.042;8.436;2022-10-18T14:46:49;1.35;;;1.17;;
32108;SDS011;18624;50.042;8.436;2022-10-18T14:49:26;1.52;;;1.42;;
32108;SDS011;18624;50.042;8.436;2022-10-18T14:51:57;1.33;;;1.23;;
32108;SDS011;18624;50.042;8.436;2022-10-18T14:54:31;1.63;;;1.20;;
32108;SDS011;18624;50.042;8.436;2022-10-18T14:57:02;1.83;;;1.73;;
32108;SDS011;18624;50.042;8.436;2022-10-18T14:59:31;1.65;;;1.55;;
32108;SDS011;18624;50.042;8.436;2022-10-18T15:02:11;1.73;;;1.45;;
32108;SDS011;18624;50.042;8.436;2022-10-18T15:04:44;1.02;;;1.02;;
32108;SDS011;18624;50.042;8.436;2022-10-18T15:07:12;1.50;;;1.40;;
32108;SDS011;18624;50.042;8.436;2022-10-18T15:09:40;3.15;;;1.80;;
32108;SDS011;18624;50.042;8.436;2022-10-18T15:12:09;2.33;;;1.50;;
32108;SDS011;18624;50.042;8.436;2022-10-18T15:14:38;1.40;;;1.30;;
32108;SDS011;18624;50.042;8.436;2022-10-18T15:17:13;2.50;;;1.30;;
32108;SDS011;18624;50.042;8.436;2022-10-18T15:19:57;1.58;;;1.30;;
32108;SDS011;18624;50.042;8.436;2022-10-18T15:22:32;1.52;;;1.42;;
32108;SDS011;18624;50.042;8.436;2022-10-18T15:25:03;3.50;;;2.20;;
32108;SDS011;18624;50.042;8.436;2022-10-18T15:27:40;2.53;;;1.77;;
32108;SDS011;18624;50.042;8.436;2022-10-18T15:30:14;2.03;;;1.60;;
32108;SDS011;18624;50.042;8.436;2022-10-18T15:32:51;2.65;;;2.20;;
32108;SDS011;18624;50.042;8.436;2022-10-18T15:35:30;1.75;;;1.65;;
32108;SDS011;18624;50.042;8.436;2022-10-18T15:37:58;1.80;;;1.70;;
32108;SDS011;18624;50.042;8.436;2022-10-18T15:40:31;1.95;;;1.65;;
32108;SDS011;18624;50.042;8.436;2022-10-18T15:43:04;2.42;;;2.22;;
32108;SDS011;18624;50.042;8.436;2022-10-18T15:45:51;3.13;;;2.83;;
32108;SDS011;18624;50.042;8.436;2022-10-18T15:48:37;2.78;;;2.33;;
32108;SDS011;18624;50.042;8.436;2022-10-18T15:51:35;2.17;;;1.77;;
32108;SDS011;18624;50.042;8.436;2022-10-18T15:54:16;1.67;;;1.58;;
32108;SDS011;18624;50.042;8.436;2022-10-18T15:56:43;1.67;;;1.58;;
32108;SDS011;18624;50.042;8.436;2022-10-18T15:59:23;3.65;;;2.00;;
32108;SDS011;18624;50.042;8.436;2022-10-18T16:01:53;2.10;;;1.88;;
32108;SDS011;18624;50.042;8.436;2022-10-18T16:04:24;2.35;;;2.15;;
32108;SDS011;18624;50.042;8.436;2022-10-18T16:06:53;2.30;;;2.10;;
32108;SDS011;18624;50.042;8.436;2022-10-18T16:09:21;1.90;;;1.80;;
32108;SDS011;18624;50.042;8.436;2022-10-18T16:11:49;3.85;;;2.13;;
32108;SDS011;18624;50.042;8.436;2022-10-18T16:16:50;3.90;;;2.25;;
32108;SDS011;18624;50.042;8.436;2022-10-18T16:19:20;2.25;;;2.05;;
32108;SDS011;18624;50.042;8.436;2022-10-18T16:21:47;2.22;;;2.03;;
32108;SDS011;18624;50.042;8.436;2022-10-18T16:24:15;2.00;;;1.80;;
32108;SDS011;18624;50.042;8.436;2022-10-18T16:26:42;2.85;;;2.42;;
32108;SDS011;18624;50.042;8.436;2022-10-18T16:29:10;2.25;;;2.15;;
32108;SDS011;18624;50.042;8.436;2022-10-18T16:31:40;2.55;;;2.10;;
32108;SDS011;18624;50.042;8.436;2022-10-18T16:34:06;1.90;;;1.80;;
32108;SDS011;18624;50.042;8.436;2022-10-18T16:36:36;2.20;;;2.00;;
32108;SDS011;18624;50.042;8.436;2022-10-18T16:39:04;2.53;;;2.33;;
32108;SDS011;18624;50.042;8.436;2022-10-18T16:41:34;2.33;;;2.13;;
32108;SDS011;18624;50.042;8.436;2022-10-18T16:44:00;2.47;;;1.98;;
32108;SDS011;18624;50.042;8.436;2022-10-18T16:46:31;2.80;;;2.60;;
32108;SDS011;18624;50.042;8.436;2022-10-18T16:48:58;3.03;;;2.83;;
32108;SDS011;18624;50.042;8.436;2022-10-18T16:51:26;2.65;;;2.40;;
32108;SDS011;18624;50.042;8.436;2022-10-18T16:53:54;2.65;;;2.45;;
32108;SDS011;18624;50.042;8.436;2022-10-18T16:56:21;3.88;;;2.47;;
32108;SDS011;18624;50.042;8.436;2022-10-18T16:58:51;4.72;;;3.65;;
32108;SDS011;18624;50.042;8.436;2022-10-18T17:01:18;3.30;;;2.58;;
32108;SDS011;18624;50.042;8.436;2022-10-18T17:03:46;2.60;;;2.40;;
32108;SDS011;18624;50.042;8.436;2022-10-18T17:06:21;3.47;;;2.85;;
32108;SDS011;18624;50.042;8.436;2022-10-18T17:08:48;3.25;;;3.05;;
32108;SDS011;18624;50.042;8.436;2022-10-18T17:11:16;3.28;;;2.97;;
32108;SDS011;18624;50.042;8.436;2022-10-18T17:13:44;2.80;;;2.60;;
32108;SDS011;18624;50.042;8.436;2022-10-18T17:16:20;2.42;;;2.22;;
32108;SDS011;18624;50.042;8.436;2022-10-18T17:18:47;3.30;;;3.00;;
32108;SDS011;18624;50.042;8.436;2022-10-18T17:21:14;2.95;;;2.70;;
32108;SDS011;18624;50.042;8.436;2022-10-18T17:23:40;2.92;;;2.60;;
32108;SDS011;18624;50.042;8.436;2022-10-18T17:26:08;4.28;;;3.40;;
32108;SDS011;18624;50.042;8.436;2022-10-18T17:28:54;4.72;;;4.32;;
32108;SDS011;18624;50.042;8.436;2022-10-18T17:31:22;4.18;;;3.78;;
32108;SDS011;18624;50.042;8.436;2022-10-18T17:33:49;3.72;;;3.42;;
32108;SDS011;18624;50.042;8.436;2022-10-18T17:36:15;3.88;;;3.53;;
32108;SDS011;18624;50.042;8.436;2022-10-18T17:38:42;4.57;;;4.18;;
32108;SDS011;18624;50.042;8.436;2022-10-18T17:41:09;7.47;;;5.82;;
32108;SDS011;18624;50.042;8.436;2022-10-18T17:43:36;7.38;;;6.68;;
32108;SDS011;18624;50.042;8.436;2022-10-18T17:46:03;8.45;;;7.60;;
32108;SDS011;18624;50.042;8.436;2022-10-18T17:48:30;8.70;;;7.80;;
32108;SDS011;18624;50.042;8.436;2022-10-18T17:50:56;9.18;;;8.25;;
32108;SDS011;18624;50.042;8.436;2022-10-18T17:53:23;9.00;;;8.10;;
32108;SDS011;18624;50.042;8.436;2022-10-18T17:56:03;6.68;;;6.07;;
32108;SDS011;18624;50.042;8.436;2022-10-18T17:58:30;6.28;;;5.57;;
32108;SDS011;18624;50.042;8.436;2022-10-18T18:00:57;5.15;;;4.65;;
32108;SDS011;18624;50.042;8.436;2022-10-18T18:03:34;6.20;;;5.60;;
32108;SDS011;18624;50.042;8.436;2022-10-18T18:06:09;6.03;;;5.50;;
32108;SDS011;18624;50.042;8.436;2022-10-18T18:08:46;7.13;;;6.38;;
32108;SDS011;18624;50.042;8.436;2022-10-18T18:11:14;6.65;;;5.78;;
32108;SDS011;18624;50.042;8.436;2022-10-18T18:13:41;6.68;;;5.95;;
32108;SDS011;18624;50.042;8.436;2022-10-18T18:18:52;7.90;;;7.18;;
32108;SDS011;18624;50.042;8.436;2022-10-18T18:21:24;6.85;;;5.72;;
32108;SDS011;18624;50.042;8.436;2022-10-18T18:23:51;5.78;;;5.28;;
32108;SDS011;18624;50.042;8.436;2022-10-18T18:26:19;4.18;;;3.83;;
32108;SDS011;18624;50.042;8.436;2022-10-18T18:28:45;4.13;;;3.83;;
32108;SDS011;18624;50.042;8.436;2022-10-18T18:31:13;4.35;;;3.95;;
32108;SDS011;18624;50.042;8.436;2022-10-18T18:33:42;4.60;;;4.20;;
32108;SDS011;18624;50.042;8.436;2022-10-18T18:36:09;5.45;;;4.32;;
32108;SDS011;18624;50.042;8.436;2022-10-18T18:38:38;6.07;;;4.75;;
32108;SDS011;18624;50.042;8.436;2022-10-18T18:41:12;6.50;;;4.03;;
32108;SDS011;18624;50.042;8.436;2022-10-18T18:43:42;5.70;;;4.75;;
32108;SDS011;18624;50.042;8.436;2022-10-18T18:46:11;4.30;;;3.90;;
32108;SDS011;18624;50.042;8.436;2022-10-18T18:48:38;4.93;;;4.43;;
32108;SDS011;18624;50.042;8.436;2022-10-18T18:51:07;5.82;;;5.25;;
32108;SDS011;18624;50.042;8.436;2022-10-18T18:53:40;5.35;;;4.50;;
32108;SDS011;18624;50.042;8.436;2022-10-18T18:56:15;6.15;;;5.65;;
32108;SDS011;18624;50.042;8.436;2022-10-18T18:58:44;5.97;;;5.38;;
32108;SDS011;18624;50.042;8.436;2022-10-18T19:01:18;6.32;;;5.72;;
32108;SDS011;18624;50.042;8.436;2022-10-18T19:03:47;5.72;;;5.13;;
32108;SDS011;18624;50.042;8.436;2022-10-18T19:06:16;6.95;;;5.97;;
32108;SDS011;18624;50.042;8.436;2022-10-18T19:08:45;8.25;;;6.63;;
32108;SDS011;18624;50.042;8.436;2022-10-18T19:11:12;7.43;;;6.03;;
32108;SDS011;18624;50.042;8.436;2022-10-18T19:13:41;6.38;;;5.85;;
32108;SDS011;18624;50.042;8.436;2022-10-18T19:16:16;5.78;;;5.07;;
32108;SDS011;18624;50.042;8.436;2022-10-18T19:19:03;7.28;;;6.63;;
32108;SDS011;18624;50.042;8.436;2022-10-18T19:24:03;7.32;;;6.28;;
32108;SDS011;18624;50.042;8.436;2022-10-18T19:26:31;7.35;;;6.68;;
32108;SDS011;18624;50.042;8.436;2022-10-18T19:29:03;11.43;;;10.35;;
32108;SDS011;18624;50.042;8.436;2022-10-18T19:31:30;10.27;;;9.30;;
32108;SDS011;18624;50.042;8.436;2022-10-18T19:33:56;10.18;;;9.27;;
32108;SDS011;18624;50.042;8.436;2022-10-18T19:36:25;8.50;;;7.80;;
32108;SDS011;18624;50.042;8.436;2022-10-18T19:38:52;8.85;;;8.05;;
32108;SDS011;18624;50.042;8.436;2022-10-18T19:41:19;7.55;;;6.85;;
32108;SDS011;18624;50.042;8.436;2022-10-18T19:43:46;7.95;;;7.15;;
32108;SDS011;18624;50.042;8.436;2022-10-18T19:46:12;8.15;;;7.43;;
32108;SDS011;18624;50.042;8.436;2022-10-18T19:48:39;8.15;;;6.90;;
32108;SDS011;18624;50.042;8.436;2022-10-18T19:51:06;8.85;;;8.02;;